地図

経路データ

SID SEASON NUMBER BASIN SUBBASIN NAME ISO_TIME NATURE LAT LON WMO_WIND WMO_PRES WMO_AGENCY TRACK_TYPE DIST2LAND LANDFALL IFLAG USA_AGENCY USA_ATCF_ID USA_LAT USA_LON USA_RECORD USA_STATUS USA_WIND USA_PRES USA_SSHS USA_R34_NE USA_R34_SE USA_R34_SW USA_R34_NW USA_R50_NE USA_R50_SE USA_R50_SW USA_R50_NW USA_R64_NE USA_R64_SE USA_R64_SW USA_R64_NW USA_POCI USA_ROCI USA_RMW USA_EYE TOKYO_LAT TOKYO_LON TOKYO_GRADE TOKYO_WIND TOKYO_PRES TOKYO_R50_DIR TOKYO_R50_LONG TOKYO_R50_SHORT TOKYO_R30_DIR TOKYO_R30_LONG TOKYO_R30_SHORT TOKYO_LAND CMA_LAT CMA_LON CMA_CAT CMA_WIND CMA_PRES HKO_LAT HKO_LON HKO_CAT HKO_WIND HKO_PRES NEWDELHI_LAT NEWDELHI_LON NEWDELHI_GRADE NEWDELHI_WIND NEWDELHI_PRES NEWDELHI_CI NEWDELHI_DP NEWDELHI_POCI REUNION_LAT REUNION_LON REUNION_TYPE REUNION_WIND REUNION_PRES REUNION_TNUM REUNION_CI REUNION_RMW REUNION_R34_NE REUNION_R34_SE REUNION_R34_SW REUNION_R34_NW REUNION_R50_NE REUNION_R50_SE REUNION_R50_SW REUNION_R50_NW REUNION_R64_NE REUNION_R64_SE REUNION_R64_SW REUNION_R64_NW BOM_LAT BOM_LON BOM_TYPE BOM_WIND BOM_PRES BOM_TNUM BOM_CI BOM_RMW BOM_R34_NE BOM_R34_SE BOM_R34_SW BOM_R34_NW BOM_R50_NE BOM_R50_SE BOM_R50_SW BOM_R50_NW BOM_R64_NE BOM_R64_SE BOM_R64_SW BOM_R64_NW BOM_ROCI BOM_POCI BOM_EYE BOM_POS_METHOD BOM_PRES_METHOD NADI_LAT NADI_LON NADI_CAT NADI_WIND NADI_PRES WELLINGTON_LAT WELLINGTON_LON WELLINGTON_WIND WELLINGTON_PRES DS824_LAT DS824_LON DS824_STAGE DS824_WIND DS824_PRES TD9636_LAT TD9636_LON TD9636_STAGE TD9636_WIND TD9636_PRES TD9635_LAT TD9635_LON TD9635_WIND TD9635_PRES TD9635_ROCI NEUMANN_LAT NEUMANN_LON NEUMANN_CLASS NEUMANN_WIND NEUMANN_PRES MLC_LAT MLC_LON MLC_CLASS MLC_WIND MLC_PRES USA_GUST BOM_GUST BOM_GUST_PER REUNION_GUST REUNION_GUST_PER USA_SEAHGT USA_SEARAD_NE USA_SEARAD_SE USA_SEARAD_SW USA_SEARAD_NW STORM_SPEED STORM_DIR
1971300N12091 1971 142 NI BB NOT_NAMED 1971-10-26 15:00:00 NR 11.5000 90.7000 main 625 606 __________O___ -1 11.5000 90.7000 1 9 335
1971300N12091 1971 142 NI BB NOT_NAMED 1971-10-26 18:00:00 TS 11.8993 90.5066 main 606 582 O________OP___ jtwc_io IO141971 11.9000 90.5000 -1 11.9000 90.5000 TC 25 11.8986 90.5131 1 9 337
1971300N12091 1971 142 NI BB NOT_NAMED 1971-10-26 21:00:00 TS 12.3319 90.3361 main 590 560 P________PP___ IO141971 12.3500 90.3326 -1 12.3500 90.3326 TC 25 12.3077 90.3407 1 9 341
1971300N12091 1971 142 NI BB NOT_NAMED 1971-10-27 00:00:00 TS 12.7752 90.1992 main 560 541 O________OP___ jtwc_io IO141971 12.8000 90.2000 -1 12.8000 90.2000 TC 25 12.7380 90.1980 1 9 347
1971300N12091 1971 142 NI BB NOT_NAMED 1971-10-27 03:00:00 TS 13.2333 90.1183 main 541 510 P________PO___ IO141971 13.2500 90.1274 -1 13.2500 90.1274 TC 25 13.2000 90.1000 1 9 353
1971300N12091 1971 142 NI BB NOT_NAMED 1971-10-27 06:00:00 TS 13.6990 90.0855 main 510 489 O________OP___ jtwc_io IO141971 13.7000 90.1000 -1 13.7000 90.1000 TC 25 13.6971 90.0565 1 9 358
1971300N12091 1971 142 NI BB NOT_NAMED 1971-10-27 09:00:00 TS 14.1725 90.0798 main 484 466 P________PP___ IO141971 14.1575 90.0925 -1 14.1575 90.0925 TC 30 14.2024 90.0545 1 9 0
1971300N12091 1971 142 NI BB NOT_NAMED 1971-10-27 12:00:00 TS 14.6272 90.0918 main 466 453 O________OP___ jtwc_io IO141971 14.6000 90.1000 -1 14.6000 90.1000 TC 35 14.6815 90.0753 1 9 0
1971300N12091 1971 142 NI BB NOT_NAMED 1971-10-27 15:00:00 TS 15.0583 90.1000 main 450 444 P________PO___ IO141971 15.0375 90.1000 -1 15.0375 90.1000 TC 35 15.1000 90.1000 2 8 2
1971300N12091 1971 142 NI BB NOT_NAMED 1971-10-27 18:00:00 TS 15.3941 90.1053 main 444 441 O________OP___ jtwc_io IO141971 15.4000 90.1000 -1 15.4000 90.1000 TC 35 15.3822 90.1160 2 6 2
1971300N12091 1971 142 NI BB NOT_NAMED 1971-10-27 21:00:00 TS 15.6075 90.1099 main 441 439 P________PP___ IO141971 15.6075 90.1000 -1 15.6075 90.1000 TC 50 15.6074 90.1296 2 4 0
1971300N12091 1971 142 NI BB NOT_NAMED 1971-10-28 00:00:00 TS 15.8097 90.1095 main 439 438 O________OP___ jtwc_io IO141971 15.8000 90.1000 -1 15.8000 90.1000 TC 65 15.8290 90.1284 2 5 0
1971300N12091 1971 142 NI BB NOT_NAMED 1971-10-28 03:00:00 TS 16.1033 90.1099 main 438 438 P________PO___ IO141971 16.1050 90.1149 -1 16.1050 90.1149 TC 65 16.1000 90.1000 4 7 0
1971300N12091 1971 142 NI BB NOT_NAMED 1971-10-28 06:00:00 TS 16.5042 90.0937 main 441 441 O________OP___ jtwc_io IO141971 16.5000 90.1000 -1 16.5000 90.1000 TC 65 16.5125 90.0810 4 9 356
1971300N12091 1971 142 NI BB NOT_NAMED 1971-10-28 09:00:00 TS 16.9873 90.0338 main 450 429 P________PP___ IO141971 16.9925 90.0374 -1 16.9925 90.0374 TC 65 16.9769 90.0266 4 10 349
1971300N12091 1971 142 NI BB NOT_NAMED 1971-10-28 12:00:00 TS 17.4843 89.9030 main 429 406 O________OP___ jtwc_io IO141971 17.5000 89.9000 -1 17.5000 89.9000 TC 65 17.4529 89.9090 4 10 342
1971300N12091 1971 142 NI BB NOT_NAMED 1971-10-28 15:00:00 TS 17.9199 89.7115 main 414 361 P________PO___ IO141971 17.9298 89.7173 -1 17.9298 89.7173 TC 65 17.9000 89.7000 4 10 328
1971300N12091 1971 142 NI BB NOT_NAMED 1971-10-28 18:00:00 TS 18.2981 89.3763 main 361 298 O________OP___ jtwc_io IO141971 18.3000 89.4000 -1 18.3000 89.4000 TC 65 18.2943 89.3290 4 11 311
1971300N12091 1971 142 NI BB NOT_NAMED 1971-10-28 21:00:00 TS 18.6316 88.8582 main 298 237 P________PP___ IO141971 18.6230 88.8502 -1 18.6230 88.8502 TC 65 18.6489 88.8742 4 12 302
1971300N12091 1971 142 NI BB NOT_NAMED 1971-10-29 00:00:00 TS 18.9179 88.3357 main 229 183 O________OP___ jtwc_io IO141971 18.9000 88.3000 -1 18.9000 88.3000 TC 65 18.9538 88.4070 4 10 304
1971300N12091 1971 142 NI BB NOT_NAMED 1971-10-29 03:00:00 TS 19.1915 87.9932 main 183 152 P________PO___ IO141971 19.1872 87.9898 -1 19.1872 87.9898 TC 65 19.2000 88.0000 4 7 312
1971300N12091 1971 142 NI BB NOT_NAMED 1971-10-29 06:00:00 TS 19.3872 87.7840 main 152 129 O________OP___ jtwc_io IO141971 19.4000 87.8000 -1 19.4000 87.8000 TC 65 19.3616 87.7520 4 4 308
1971300N12091 1971 142 NI BB NOT_NAMED 1971-10-29 09:00:00 TS 19.4622 87.6194 main 129 122 P________PP___ IO141971 19.4574 87.6423 -1 19.4574 87.6423 TC 65 19.4718 87.5736 4 3 295
1971300N12091 1971 142 NI BB NOT_NAMED 1971-10-29 12:00:00 TS 19.5237 87.4778 main 122 91 O________OP___ jtwc_io IO141971 19.5000 87.5000 -1 19.5000 87.5000 TC 65 19.5711 87.4335 4 4 305
1971300N12091 1971 142 NI BB NOT_NAMED 1971-10-29 15:00:00 TS 19.6750 87.3000 main 91 61 P________PO___ IO141971 19.6625 87.3000 -1 19.6625 87.3000 TC 65 19.7000 87.3000 4 5 317
1971300N12091 1971 142 NI BB NOT_NAMED 1971-10-29 18:00:00 TS 19.9061 87.0976 main 61 23 O________OP___ jtwc_io IO141971 19.9000 87.1000 -1 19.9000 87.1000 TC 65 19.9182 87.0929 4 6 326
1971300N12091 1971 142 NI BB NOT_NAMED 1971-10-29 21:00:00 TS 20.1900 86.9252 main 23 0 P________PP___ IO141971 20.2000 86.9425 -1 20.2000 86.9425 TC 65 20.1701 86.8906 4 7 332
1971300N12091 1971 142 NI BB NOT_NAMED 1971-10-30 00:00:00 TS 20.4790 86.7727 main 0 0 O________OP___ jtwc_io IO141971 20.5000 86.8000 -1 20.5000 86.8000 TC 65 20.4370 86.7180 4 6 330
1971300N12091 1971 142 NI BB NOT_NAMED 1971-10-30 03:00:00 TS 20.7050 86.6133 main 0 0 P________PO___ IO141971 20.7075 86.6200 -1 20.7075 86.6200 TC 50 20.7000 86.6000 4 5 331
1971300N12091 1971 142 NI BB NOT_NAMED 1971-10-30 06:00:00 TS 20.9202 86.5156 main 0 0 O________OP___ jtwc_io IO141971 20.9000 86.5000 -1 20.9000 86.5000 TC 35 20.9605 86.5468 4 5 351
1971300N12091 1971 142 NI BB NOT_NAMED 1971-10-30 09:00:00 TS 21.1749 86.5256 main 0 0 P________PP___ IO141971 21.1575 86.5124 -1 21.1575 86.5124 TC 30 21.2098 86.5520 4 5 9
1971300N12091 1971 142 NI BB NOT_NAMED 1971-10-30 12:00:00 TS 21.4097 86.6021 main 0 0 O________OP___ jtwc_io IO141971 21.4000 86.6000 -1 21.4000 86.6000 TC 25 21.4292 86.6063 4 4 20
1971300N12091 1971 142 NI BB NOT_NAMED 1971-10-30 15:00:00 TS 21.5867 86.6900 main 0 0 P________PO___ IO141971 21.5800 86.6850 -1 21.5800 86.6850 TC 25 21.6000 86.7000 6 3 32
1971300N12091 1971 142 NI BB NOT_NAMED 1971-10-30 18:00:00 TS 21.6987 86.8007 main 0 0 O________OP___ jtwc_io IO141971 21.7000 86.8000 -1 21.7000 86.8000 TC 25 21.6962 86.8020 6 3 53
1971300N12091 1971 142 NI BB NOT_NAMED 1971-10-30 21:00:00 TS 21.7583 86.9368 main 0 0 P________PP___ IO141971 21.7650 86.9350 -1 21.7650 86.9350 TC 25 21.7449 86.9402 6 3 72
1971300N12091 1971 142 NI BB NOT_NAMED 1971-10-31 00:00:00 TS 21.7904 87.1028 main 0 0 O________OP___ jtwc_io IO141971 21.8000 87.1000 -1 21.8000 87.1000 TC 25 21.7712 87.1083 6 3 77
1971300N12091 1971 142 NI BB NOT_NAMED 1971-10-31 03:00:00 TS 21.8333 87.2950 main 0 0 P________PO___ IO141971 21.8500 87.2925 -1 21.8500 87.2925 TC 25 21.8000 87.3000 6 4 75
1971300N12091 1971 142 NI BB NOT_NAMED 1971-10-31 06:00:00 TS 21.8888 87.5111 main 0 0 O________OP___ jtwc_io IO141971 21.9000 87.5000 -1 21.9000 87.5000 TC 25 21.8721 87.5277 6 4 74
1971300N12091 1971 142 NI BB NOT_NAMED 1971-10-31 09:00:00 TS 21.9502 87.7374 main 0 0 P________PP___ IO141971 21.9476 87.7012 -1 21.9500 87.7025 TC 25 21.9503 87.7723 6 4 73
1971300N12091 1971 142 NI BB NOT_NAMED 1971-10-31 12:00:00 TS 22.0189 87.9705 main 0 0 O________OP___ jtwc_io IO141971 22.0000 87.9000 -1 22.0000 87.9000 TC 25 22.0284 88.0058 6 5 71
1971300N12091 1971 142 NI BB NOT_NAMED 1971-10-31 15:00:00 NR 22.1000 88.2000 main 0 0 P_________O___ IO141971 22.0541 88.0284 -1 TC 22.1000 88.2000 6 3 66
1971300N12091 1971 142 NI BB NOT_NAMED 1971-10-31 18:00:00 NR 22.1361 88.2457 main 0 0 P_________P___ IO141971 22.1150 88.1279 -1 22.1361 88.2457 6 1 39
1971300N12091 1971 142 NI BB NOT_NAMED 1971-10-31 21:00:00 NR 22.1686 88.2611 main 0 0 P_________P___ IO141971 22.1866 88.2365 -1 22.1686 88.2611 6 1 39
1971300N12091 1971 142 NI BB NOT_NAMED 1971-11-01 00:00:00 NR 22.2170 88.3210 main 0 0 P_________P___ IO141971 22.2724 88.3926 -1 22.2170 88.3210 6 3 59
1971300N12091 1971 142 NI BB NOT_NAMED 1971-11-01 03:00:00 NR 22.3000 88.5000 main 0 0 P_________O___ IO141971 22.3758 88.6342 -1 22.3000 88.5000 6 6 66
1971300N12091 1971 142 NI BB NOT_NAMED 1971-11-01 06:00:00 TS 22.4540 88.9019 main 0 0 O_________P___ jtwc_io IO151971 22.5000 89.0000 -1 22.4309 88.8529 6 10 70
1971300N12091 1971 142 NI BB NOT_NAMED 1971-11-01 09:00:00 TS 22.6294 89.4650 main 0 0 P_________P___ IO151971 22.6449 89.5088 -1 22.6008 89.3525 6 11 72
1971300N12091 1971 142 NI BB NOT_NAMED 1971-11-01 12:00:00 TS 22.7976 90.0255 main 0 0 O_________P___ jtwc_io IO151971 22.8000 90.1000 -1 22.7951 89.9510 6 11 70
1971300N12091 1971 142 NI BB NOT_NAMED 1971-11-01 15:00:00 NR 23.0000 90.6000 main 0 __________O___ IO151971 -1 23.0000 90.6000 6 11 69

IBTrACS Databaseについて

本データベースは、米国NOAAが公開する1842年以降の世界の熱帯低気圧のベストトラックデータアーカイブInternational Best Track Archive for Climate Stewardship (IBTrACS)を、ウェブで閲覧しやすい形式に変換したものです。

最終更新日:2021-12-01